createdAt,value
2022-07-29T00:17:00.441Z,19.75
2022-07-29T00:19:29.060Z,19.74
2022-07-29T00:21:58.842Z,19.74
2022-07-29T00:24:27.748Z,19.75
2022-07-29T00:26:56.342Z,19.74
2022-07-29T00:29:34.220Z,19.72
2022-07-29T00:32:03.471Z,19.73
2022-07-29T00:34:49.371Z,19.72
2022-07-29T00:37:20.323Z,19.71
2022-07-29T00:39:48.852Z,19.72
2022-07-29T00:42:17.546Z,19.72
2022-07-29T00:44:46.372Z,19.70
2022-07-29T00:47:14.823Z,19.71
2022-07-29T00:49:44.453Z,19.71
2022-07-29T00:52:16.799Z,19.71
2022-07-29T00:54:47.782Z,19.68
2022-07-29T00:57:16.342Z,19.68
2022-07-29T00:59:44.836Z,19.69
2022-07-29T01:02:13.532Z,19.68
2022-07-29T01:04:43.282Z,19.68
2022-07-29T01:07:12.451Z,19.67
2022-07-29T01:09:46.805Z,19.68
2022-07-29T01:12:21.204Z,19.67
2022-07-29T01:14:51.242Z,19.68
2022-07-29T01:17:25.507Z,19.67
2022-07-29T01:20:00.380Z,19.66
2022-07-29T01:22:38.280Z,19.65
2022-07-29T01:25:42.960Z,19.66
2022-07-29T01:28:37.597Z,19.66
2022-07-29T01:31:12.462Z,19.65
2022-07-29T01:34:05.851Z,19.65
2022-07-29T01:36:38.062Z,19.66
2022-07-29T01:39:11.185Z,19.65
2022-07-29T01:41:45.924Z,19.64
2022-07-29T01:44:19.801Z,19.63
2022-07-29T01:46:56.366Z,19.63
2022-07-29T01:49:30.588Z,19.64
2022-07-29T01:52:03.041Z,19.63
2022-07-29T01:54:36.900Z,19.63
2022-07-29T01:57:07.430Z,19.63
2022-07-29T01:59:37.570Z,19.63
2022-07-29T02:02:10.748Z,19.62
2022-07-29T02:04:41.544Z,19.62
2022-07-29T02:07:15.717Z,19.63
2022-07-29T02:09:44.921Z,19.62
2022-07-29T02:12:14.220Z,19.61
2022-07-29T02:14:46.729Z,19.61
2022-07-29T02:17:23.430Z,19.61
2022-07-29T02:19:53.454Z,19.61
2022-07-29T02:22:24.016Z,19.60
2022-07-29T02:24:54.001Z,19.60
2022-07-29T02:27:23.021Z,19.60
2022-07-29T02:29:53.235Z,19.60
2022-07-29T02:32:25.012Z,19.60
2022-07-29T02:34:55.011Z,19.58
2022-07-29T02:37:23.910Z,19.59
2022-07-29T02:39:54.593Z,19.59
2022-07-29T02:42:25.092Z,19.59
2022-07-29T02:44:53.645Z,19.59
2022-07-29T02:47:27.085Z,19.58
2022-07-29T02:50:00.534Z,19.59
2022-07-29T02:52:34.360Z,19.58
2022-07-29T02:55:09.980Z,19.57
2022-07-29T02:57:54.709Z,19.57
2022-07-29T03:00:27.130Z,19.57
2022-07-29T03:03:01.781Z,19.56
2022-07-29T03:05:30.990Z,19.54
2022-07-29T03:08:02.280Z,19.55
2022-07-29T03:10:31.710Z,19.53
2022-07-29T03:13:01.042Z,19.54
2022-07-29T03:15:30.150Z,19.55
2022-07-29T03:18:01.130Z,19.55
2022-07-29T03:20:29.830Z,19.53
2022-07-29T03:22:58.311Z,19.53
2022-07-29T03:25:28.269Z,19.54
2022-07-29T03:27:57.589Z,19.54
2022-07-29T03:30:26.529Z,19.52
2022-07-29T03:32:56.603Z,19.52
2022-07-29T03:35:28.819Z,19.53
2022-07-29T03:37:57.207Z,19.52
2022-07-29T03:40:30.152Z,19.52
2022-07-29T03:43:01.476Z,19.52
2022-07-29T03:45:32.812Z,19.53
2022-07-29T03:48:04.724Z,19.52
2022-07-29T03:50:36.554Z,19.52
2022-07-29T03:53:05.610Z,19.52
2022-07-29T03:55:40.011Z,19.52
2022-07-29T03:58:10.021Z,19.51
2022-07-29T04:00:38.961Z,19.51
2022-07-29T04:03:10.825Z,19.52
2022-07-29T04:05:41.739Z,19.50
2022-07-29T04:08:10.199Z,19.50
2022-07-29T04:10:40.116Z,19.50
2022-07-29T04:13:08.524Z,19.50
2022-07-29T04:15:37.019Z,19.49
2022-07-29T04:18:05.510Z,19.50
2022-07-29T04:20:33.929Z,19.49
2022-07-29T04:23:03.760Z,19.49
2022-07-29T04:25:32.200Z,19.50
2022-07-29T04:28:04.079Z,19.49
2022-07-29T04:30:34.460Z,19.49
2022-07-29T04:33:03.309Z,19.48
2022-07-29T04:35:36.714Z,19.49
2022-07-29T04:38:15.549Z,19.48
2022-07-29T04:40:44.404Z,19.48
2022-07-29T04:43:14.193Z,19.48
2022-07-29T04:45:43.950Z,19.48
2022-07-29T04:48:12.400Z,19.49
2022-07-29T04:50:40.960Z,19.49
2022-07-29T04:53:10.769Z,19.48
2022-07-29T04:55:39.264Z,19.48
2022-07-29T04:58:08.630Z,19.49
2022-07-29T05:00:37.305Z,19.49
2022-07-29T05:03:06.117Z,19.49
2022-07-29T05:05:34.570Z,19.48
2022-07-29T05:08:02.969Z,19.47
2022-07-29T05:10:32.860Z,19.48
2022-07-29T05:13:01.192Z,19.47
2022-07-29T05:15:29.610Z,19.47
2022-07-29T05:17:58.024Z,19.46
2022-07-29T05:20:29.315Z,19.47
2022-07-29T05:22:58.753Z,19.47
2022-07-29T05:25:43.207Z,19.47
2022-07-29T05:28:14.619Z,19.47
2022-07-29T05:30:43.030Z,19.46
2022-07-29T05:33:34.646Z,19.47
2022-07-29T05:36:00.782Z,19.46
2022-07-29T05:38:29.656Z,19.47
2022-07-29T05:41:00.028Z,19.47
2022-07-29T06:19:41.620Z,19.42
2022-07-29T06:22:09.999Z,19.44
2022-07-29T06:24:42.641Z,19.42
2022-07-29T06:27:11.050Z,19.42
2022-07-29T06:29:39.439Z,19.41
2022-07-29T06:32:10.263Z,19.42
2022-07-29T06:34:38.730Z,19.42
2022-07-29T06:37:15.750Z,19.43
2022-07-29T06:39:44.279Z,19.43
2022-07-29T06:42:12.745Z,19.43
2022-07-29T06:44:41.110Z,19.42
2022-07-29T06:47:09.520Z,19.41
2022-07-29T06:49:37.889Z,19.42
2022-07-29T06:52:06.879Z,19.42
2022-07-29T06:54:36.730Z,19.42
2022-07-29T06:57:05.246Z,19.41
2022-07-29T06:59:35.720Z,19.42
2022-07-29T07:02:04.616Z,19.42
2022-07-29T07:04:33.249Z,19.42
2022-07-29T07:07:01.709Z,19.43
2022-07-29T07:09:39.836Z,19.43
2022-07-29T07:12:11.166Z,19.45
2022-07-29T07:14:40.919Z,19.47
2022-07-29T07:17:09.471Z,19.49
2022-07-29T07:19:37.918Z,19.49
2022-07-29T07:22:06.403Z,19.50
2022-07-29T07:24:34.803Z,19.52
2022-07-29T07:27:03.296Z,19.55
2022-07-29T07:29:33.129Z,19.58
2022-07-29T07:32:01.718Z,19.58
2022-07-29T07:34:31.260Z,19.62
2022-07-29T07:36:59.701Z,19.62
2022-07-29T07:39:28.409Z,19.60
2022-07-29T07:41:56.944Z,19.61
2022-07-29T07:44:25.311Z,19.62
2022-07-29T07:46:55.270Z,19.62
2022-07-29T07:49:23.758Z,19.64
2022-07-29T07:51:53.730Z,19.63
2022-07-29T07:54:22.164Z,19.66
2022-07-29T07:56:53.330Z,19.71
2022-07-29T07:59:22.002Z,19.75
2022-07-29T08:01:56.143Z,19.76
2022-07-29T08:04:28.416Z,19.78
2022-07-29T08:06:58.166Z,19.76
2022-07-29T08:09:29.786Z,19.79
2022-07-29T08:12:00.043Z,19.80
2022-07-29T08:14:28.520Z,19.72
2022-07-29T08:16:56.984Z,19.74
2022-07-29T08:19:26.938Z,19.74
2022-07-29T08:21:55.965Z,19.78
2022-07-29T08:24:42.218Z,19.74
2022-07-29T08:27:33.364Z,19.72
2022-07-29T08:29:59.111Z,19.72
2022-07-29T08:32:51.904Z,19.74
2022-07-29T08:35:19.483Z,19.74
2022-07-29T08:37:51.488Z,19.76
2022-07-29T08:40:20.357Z,19.77
2022-07-29T08:43:00.819Z,19.77
2022-07-29T08:45:31.988Z,19.78
2022-07-29T08:48:01.209Z,19.85
2022-07-29T08:50:31.123Z,19.79
2022-07-29T08:53:00.176Z,19.81
2022-07-29T08:55:29.844Z,19.82
2022-07-29T08:57:59.098Z,19.84
2022-07-29T09:00:28.875Z,19.92
2022-07-29T09:03:00.582Z,19.88
2022-07-29T09:05:31.094Z,19.87
2022-07-29T09:07:59.841Z,19.94
2022-07-29T09:10:28.580Z,20.06
2022-07-29T09:12:57.706Z,20.17
2022-07-29T09:15:26.380Z,20.23
2022-07-29T09:17:56.505Z,20.25
2022-07-29T09:20:25.378Z,20.35
2022-07-29T09:22:55.809Z,20.19
2022-07-29T09:25:37.382Z,20.12
2022-07-29T09:28:10.150Z,20.13
2022-07-29T09:30:41.745Z,20.13
2022-07-29T09:33:10.199Z,20.09
2022-07-29T09:35:38.599Z,20.10
2022-07-29T09:38:15.329Z,20.10
2022-07-29T09:40:43.880Z,20.10
2022-07-29T09:43:14.109Z,20.12
2022-07-29T09:45:42.919Z,20.11
2022-07-29T09:48:19.019Z,20.06
2022-07-29T09:50:49.563Z,20.03
2022-07-29T09:53:35.581Z,20.00
2022-07-29T09:56:03.994Z,19.99
2022-07-29T09:58:34.772Z,20.06
2022-07-29T10:01:04.477Z,20.12
2022-07-29T10:04:37.019Z,20.04
2022-07-29T10:07:15.179Z,20.04
2022-07-29T10:10:31.765Z,20.03
2022-07-29T10:13:23.469Z,20.00
2022-07-29T10:16:29.773Z,19.97
2022-07-29T10:22:58.990Z,19.93
2022-07-29T10:26:19.938Z,19.94
2022-07-29T10:29:06.391Z,19.95
2022-07-29T10:32:12.700Z,19.96
2022-07-29T10:35:07.279Z,20.06
2022-07-29T10:37:46.840Z,20.04
2022-07-29T10:40:42.092Z,20.05
2022-07-29T10:43:22.258Z,20.05
2022-07-29T10:45:57.789Z,20.11
2022-07-29T10:48:26.915Z,20.13
2022-07-29T10:50:56.695Z,20.13
2022-07-29T10:53:25.835Z,20.10
2022-07-29T10:56:06.392Z,20.07
2022-07-29T10:58:36.590Z,20.04
2022-07-29T11:01:37.606Z,20.07
2022-07-29T11:04:08.205Z,20.12
2022-07-29T11:07:10.149Z,20.11
2022-07-29T11:09:39.571Z,20.07
2022-07-29T11:12:49.259Z,20.05
2022-07-29T11:15:22.050Z,20.06
2022-07-29T11:18:08.119Z,20.05
2022-07-29T11:20:45.846Z,20.05
2022-07-29T11:23:24.639Z,20.01
2022-07-29T11:26:25.734Z,20.03
2022-07-29T11:28:59.471Z,20.01
2022-07-29T11:31:40.619Z,19.99
2022-07-29T11:37:27.742Z,20.03
2022-07-29T11:40:15.431Z,20.09
2022-07-29T11:42:53.379Z,20.10
2022-07-29T11:45:43.113Z,20.07
2022-07-29T11:48:29.643Z,20.04
2022-07-29T11:51:13.214Z,20.01
2022-07-29T11:53:42.109Z,20.02
2022-07-29T11:56:11.755Z,20.02
2022-07-29T11:58:45.689Z,20.04
2022-07-29T12:01:16.479Z,20.07
2022-07-29T12:03:48.111Z,20.08
2022-07-29T12:07:03.269Z,20.00
2022-07-29T12:09:11.274Z,20.10
2022-07-29T12:11:47.392Z,20.09
2022-07-29T12:14:31.269Z,20.12
2022-07-29T12:17:00.454Z,20.18
2022-07-29T12:23:34.497Z,20.26
2022-07-29T12:26:07.561Z,20.24
2022-07-29T12:28:39.662Z,20.23
2022-07-29T12:31:43.406Z,20.26
2022-07-29T12:34:19.330Z,20.19
2022-07-29T12:36:49.400Z,20.20
2022-07-29T12:39:20.100Z,20.16
2022-07-29T12:41:48.573Z,20.18
2022-07-29T12:44:17.006Z,20.18
2022-07-29T12:46:47.774Z,20.17
2022-07-29T12:49:24.102Z,20.20
2022-07-29T12:51:53.315Z,20.20
2022-07-29T12:54:23.135Z,20.22
2022-07-29T12:57:01.904Z,20.22
2022-07-29T12:59:30.358Z,20.26
2022-07-29T13:02:01.261Z,20.27
2022-07-29T13:04:31.104Z,20.37
2022-07-29T13:07:09.238Z,20.44
2022-07-29T13:09:57.212Z,20.42
2022-07-29T13:12:26.436Z,20.38
2022-07-29T13:14:55.766Z,20.34
2022-07-29T13:17:28.754Z,20.36
2022-07-29T13:20:14.013Z,20.41
2022-07-29T13:22:45.524Z,20.42
2022-07-29T13:25:17.456Z,20.49
2022-07-29T13:27:47.655Z,20.45
2022-07-29T13:30:35.086Z,20.47
2022-07-29T13:33:03.837Z,20.47
2022-07-29T13:35:32.954Z,20.50
2022-07-29T13:38:01.344Z,20.55
2022-07-29T13:40:31.645Z,20.57
2022-07-29T13:43:00.079Z,20.59
2022-07-29T13:45:29.319Z,20.54
2022-07-29T13:47:58.065Z,20.51
2022-07-29T13:50:26.462Z,20.54
2022-07-29T13:52:54.966Z,20.52
2022-07-29T13:55:23.572Z,20.49
2022-07-29T13:57:53.806Z,20.51
2022-07-29T14:00:22.675Z,20.58
2022-07-29T14:02:51.146Z,20.59
2022-07-29T14:05:19.707Z,20.62
2022-07-29T14:07:48.526Z,20.65
2022-07-29T14:10:20.079Z,20.62
2022-07-29T14:12:48.747Z,20.61
2022-07-29T14:15:18.579Z,20.62
2022-07-29T14:17:47.002Z,20.51
2022-07-29T14:20:17.241Z,20.47
2022-07-29T14:22:45.996Z,20.54
2022-07-29T14:25:15.779Z,20.52
2022-07-29T14:27:44.857Z,20.54
2022-07-29T14:30:14.165Z,20.45
2022-07-29T14:32:44.145Z,20.45
2022-07-29T14:35:12.586Z,20.45
2022-07-29T14:37:41.478Z,20.45
2022-07-29T14:40:11.079Z,20.45
2022-07-29T14:42:40.085Z,20.44
2022-07-29T14:45:10.126Z,20.56
2022-07-29T14:47:39.095Z,20.57
2022-07-29T14:50:09.965Z,20.59
2022-07-29T14:52:38.423Z,20.51
2022-07-29T14:55:19.349Z,20.49
2022-07-29T14:57:49.315Z,20.43
2022-07-29T15:00:18.086Z,20.41
2022-07-29T15:03:01.503Z,20.40
2022-07-29T15:05:32.562Z,20.40
2022-07-29T15:08:01.747Z,20.44
2022-07-29T15:10:30.168Z,20.44
2022-07-29T15:12:59.180Z,20.45
2022-07-29T15:15:28.234Z,20.43
2022-07-29T15:17:56.690Z,20.45
2022-07-29T15:20:26.525Z,20.46
2022-07-29T15:22:57.192Z,20.49
2022-07-29T15:25:28.210Z,20.58
2022-07-29T15:28:01.271Z,20.56
2022-07-29T15:30:34.292Z,20.65
2022-07-29T15:33:05.219Z,20.62
2022-07-29T15:35:40.520Z,20.61
2022-07-29T15:38:10.490Z,20.60
2022-07-29T15:40:40.254Z,20.52
2022-07-29T15:43:09.105Z,20.50
2022-07-29T15:45:40.437Z,20.46
2022-07-29T15:48:14.721Z,20.42
2022-07-29T15:50:47.127Z,20.50
2022-07-29T15:53:17.228Z,20.46
2022-07-29T15:55:46.435Z,20.44
2022-07-29T15:58:15.485Z,20.43
2022-07-29T16:00:44.170Z,20.42
2022-07-29T16:03:12.814Z,20.44
2022-07-29T16:05:41.475Z,20.40
2022-07-29T16:08:10.215Z,20.43
2022-07-29T16:10:40.346Z,20.46
2022-07-29T16:13:08.966Z,20.41
2022-07-29T16:15:37.774Z,20.38
2022-07-29T16:18:06.500Z,20.39
2022-07-29T16:20:34.991Z,20.40
2022-07-29T16:23:10.115Z,20.41
2022-07-29T16:25:59.156Z,20.37
2022-07-29T16:28:28.412Z,20.38
2022-07-29T16:30:57.682Z,20.39
2022-07-29T16:33:26.769Z,20.40
2022-07-29T16:35:55.440Z,20.38
2022-07-29T16:38:24.150Z,20.36
2022-07-29T16:40:54.239Z,20.49
2022-07-29T16:43:22.775Z,20.55
2022-07-29T16:45:51.801Z,20.46
2022-07-29T16:48:20.875Z,20.40
2022-07-29T16:50:50.610Z,20.39
2022-07-29T16:53:19.100Z,20.38
2022-07-29T16:55:47.972Z,20.42
2022-07-29T16:58:18.470Z,20.40
2022-07-29T17:00:47.553Z,20.39
2022-07-29T17:06:49.897Z,20.38
2022-07-29T17:09:20.630Z,20.38
2022-07-29T17:11:55.143Z,20.38
2022-07-29T17:14:27.351Z,20.38
2022-07-29T17:17:01.265Z,20.40
2022-07-29T17:19:32.089Z,20.38
2022-07-29T17:22:10.444Z,20.43
2022-07-29T17:24:41.531Z,20.41
2022-07-29T17:27:10.480Z,20.40
2022-07-29T17:29:41.187Z,20.40
2022-07-29T17:32:12.761Z,20.41
2022-07-29T17:34:42.646Z,20.41
2022-07-29T17:37:12.503Z,20.40
2022-07-29T17:39:44.493Z,20.39
2022-07-29T17:42:14.916Z,20.37
2022-07-29T17:44:44.940Z,20.40
2022-07-29T17:47:16.041Z,20.37
2022-07-29T17:49:45.376Z,20.41
2022-07-29T17:52:14.154Z,20.36
2022-07-29T17:54:42.600Z,20.35
2022-07-29T17:57:11.161Z,20.36
2022-07-29T17:59:39.660Z,20.34
2022-07-29T18:02:12.873Z,20.32
2022-07-29T18:04:41.441Z,20.35
2022-07-29T18:07:11.803Z,20.33
2022-07-29T18:09:41.770Z,20.29
2022-07-29T18:12:12.411Z,20.31
2022-07-29T18:14:42.490Z,20.31
2022-07-29T18:17:13.997Z,20.30
2022-07-29T18:19:49.731Z,20.28
2022-07-29T18:22:18.291Z,20.24
2022-07-29T18:24:48.761Z,20.28
2022-07-29T18:27:19.226Z,20.27
2022-07-29T18:29:51.260Z,20.25
2022-07-29T18:32:28.852Z,20.32
2022-07-29T18:34:58.091Z,20.31
2022-07-29T18:38:01.948Z,20.26
2022-07-29T18:40:17.550Z,20.22
2022-07-29T18:42:46.182Z,20.21
2022-07-29T18:45:19.343Z,20.26
2022-07-29T18:47:50.420Z,20.27
2022-07-29T18:50:19.551Z,20.25
2022-07-29T18:52:48.150Z,20.25
2022-07-29T18:55:16.665Z,20.23
2022-07-29T18:57:54.359Z,20.28
2022-07-29T19:00:25.881Z,20.26
2022-07-29T19:02:55.970Z,20.22
2022-07-29T19:05:24.900Z,20.24
2022-07-29T19:07:56.216Z,20.29
2022-07-29T19:10:25.150Z,20.29
2022-07-29T19:12:54.590Z,20.24
2022-07-29T19:15:24.141Z,20.19
2022-07-29T19:17:53.989Z,20.16
2022-07-29T19:20:28.805Z,20.19
2022-07-29T19:22:57.501Z,20.17
2022-07-29T19:25:26.839Z,20.15
2022-07-29T19:27:56.261Z,20.14
2022-07-29T19:30:24.904Z,20.14
2022-07-29T19:32:53.519Z,20.16
2022-07-29T19:35:32.494Z,20.12
2022-07-29T19:38:04.020Z,20.20
2022-07-29T19:40:32.879Z,20.11
2022-07-29T19:43:01.470Z,20.16
2022-07-29T19:45:30.580Z,20.08
2022-07-29T19:48:01.786Z,20.13
2022-07-29T19:50:30.749Z,20.09
2022-07-29T19:52:59.730Z,20.06
2022-07-29T19:55:29.920Z,20.05
2022-07-29T19:57:59.140Z,19.99
2022-07-29T20:00:28.854Z,20.01
2022-07-29T20:02:58.722Z,20.02
2022-07-29T20:05:28.558Z,20.08
2022-07-29T20:07:57.370Z,20.10
2022-07-29T20:10:26.429Z,20.01
2022-07-29T20:12:57.260Z,20.07
2022-07-29T20:15:25.834Z,20.04
2022-07-29T20:17:57.355Z,20.03
2022-07-29T20:20:26.750Z,20.03
2022-07-29T20:22:55.440Z,20.02
2022-07-29T20:25:24.092Z,20.02
2022-07-29T20:27:52.840Z,20.06
2022-07-29T20:30:23.800Z,20.03
2022-07-29T20:32:52.400Z,20.01
2022-07-29T20:35:22.570Z,20.02
2022-07-29T20:37:55.987Z,20.07
2022-07-29T20:40:26.187Z,20.03
2022-07-29T20:42:55.309Z,20.00
2022-07-29T20:45:25.992Z,20.03
2022-07-29T20:47:54.943Z,19.98
2022-07-29T20:50:24.637Z,20.00
2022-07-29T20:52:53.755Z,20.03
2022-07-29T20:55:24.067Z,20.05
2022-07-29T20:57:53.060Z,19.96
2022-07-29T21:00:21.550Z,20.01
2022-07-29T21:02:51.971Z,20.06
2022-07-29T21:05:21.310Z,19.98
2022-07-29T21:07:49.920Z,20.03
2022-07-29T21:10:19.243Z,20.03
2022-07-29T21:12:48.217Z,19.98
2022-07-29T21:15:16.655Z,19.95
2022-07-29T21:17:48.330Z,19.96
2022-07-29T21:20:19.863Z,20.00
2022-07-29T21:22:48.426Z,19.98
2022-07-29T21:25:16.960Z,20.00
2022-07-29T21:28:02.590Z,19.90
2022-07-29T21:30:31.100Z,19.91
2022-07-29T21:32:59.793Z,19.96
2022-07-29T21:36:01.749Z,19.96
2022-07-29T21:38:19.450Z,19.93
2022-07-29T21:40:49.093Z,20.01
2022-07-29T21:43:18.271Z,19.97
2022-07-29T21:45:50.495Z,20.01
2022-07-29T21:48:19.902Z,20.09
2022-07-29T21:50:50.372Z,20.14
2022-07-29T21:53:20.832Z,20.17
2022-07-29T21:55:55.484Z,20.18
2022-07-29T21:58:34.581Z,20.19
2022-07-29T22:01:03.830Z,20.21
2022-07-29T22:03:32.551Z,20.21
2022-07-29T22:06:02.480Z,20.23
2022-07-29T22:08:31.041Z,20.25
2022-07-29T22:11:00.100Z,20.25
2022-07-29T22:13:29.890Z,20.24
2022-07-29T22:16:00.061Z,20.28
2022-07-29T22:18:31.821Z,20.27
2022-07-29T22:21:04.640Z,20.28
2022-07-29T22:23:34.851Z,20.29
2022-07-29T22:26:06.983Z,20.34
2022-07-29T22:28:37.571Z,20.34
2022-07-29T22:31:07.647Z,20.30
2022-07-29T22:33:37.720Z,20.28
2022-07-29T22:36:10.191Z,20.26
2022-07-29T22:38:38.742Z,20.26
2022-07-29T22:41:07.160Z,20.26
2022-07-29T22:43:36.622Z,20.26
2022-07-29T22:46:05.244Z,20.26
2022-07-29T22:48:33.742Z,20.27
2022-07-29T22:51:02.190Z,20.29
2022-07-29T22:53:32.041Z,20.25
2022-07-29T22:56:00.474Z,20.25
2022-07-29T22:58:29.095Z,20.24
2022-07-29T23:00:57.595Z,20.21
2022-07-29T23:03:26.064Z,20.23
2022-07-29T23:05:54.620Z,20.24
2022-07-29T23:08:28.830Z,20.24
2022-07-29T23:10:59.140Z,20.23
2022-07-29T23:13:28.256Z,20.25
2022-07-29T23:15:56.741Z,20.25
2022-07-29T23:18:26.470Z,20.24
2022-07-29T23:20:56.776Z,20.23
2022-07-29T23:23:27.535Z,20.27
2022-07-29T23:26:05.010Z,20.31
2022-07-29T23:28:35.070Z,20.35
2022-07-29T23:31:04.766Z,20.37
2022-07-29T23:33:33.523Z,20.39
2022-07-29T23:36:01.977Z,20.37
2022-07-29T23:38:30.455Z,20.35
2022-07-29T23:40:59.120Z,20.33
2022-07-29T23:43:29.121Z,20.35
2022-07-29T23:45:58.153Z,20.37
2022-07-29T23:48:27.320Z,20.37
2022-07-29T23:50:56.170Z,20.38
2022-07-29T23:53:24.765Z,20.38
2022-07-29T23:55:53.194Z,20.40
2022-07-29T23:58:21.655Z,20.45
